sensor_id;sensor_type;location;lat;lon;timestamp;temperature;humidity
41838;DHT22;27511;52.042;5.178;2023-03-23T00:01:19;14.80;99.90
41838;DHT22;27511;52.042;5.178;2023-03-23T00:03:48;14.70;99.90
41838;DHT22;27511;52.042;5.178;2023-03-23T00:06:14;14.70;99.90
41838;DHT22;27511;52.042;5.178;2023-03-23T00:08:42;14.90;99.90
41838;DHT22;27511;52.042;5.178;2023-03-23T00:11:12;14.70;99.90
41838;DHT22;27511;52.042;5.178;2023-03-23T00:13:40;14.60;99.90
41838;DHT22;27511;52.042;5.178;2023-03-23T00:16:05;14.60;99.90
41838;DHT22;27511;52.042;5.178;2023-03-23T00:18:38;14.60;99.90
41838;DHT22;27511;52.042;5.178;2023-03-23T00:21:03;14.60;99.90
41838;DHT22;27511;52.042;5.178;2023-03-23T00:23:29;14.70;99.90
41838;DHT22;27511;52.042;5.178;2023-03-23T00:25:55;14.70;99.90
41838;DHT22;27511;52.042;5.178;2023-03-23T00:28:24;14.80;99.90
41838;DHT22;27511;52.042;5.178;2023-03-23T00:30:54;14.90;99.90
41838;DHT22;27511;52.042;5.178;2023-03-23T00:33:22;14.80;99.90
41838;DHT22;27511;52.042;5.178;2023-03-23T00:35:47;14.70;99.90
41838;DHT22;27511;52.042;5.178;2023-03-23T00:38:14;14.90;99.90
41838;DHT22;27511;52.042;5.178;2023-03-23T00:40:39;14.90;99.90
41838;DHT22;27511;52.042;5.178;2023-03-23T00:43:04;14.80;99.90
41838;DHT22;27511;52.042;5.178;2023-03-23T00:45:30;14.80;99.90
41838;DHT22;27511;52.042;5.178;2023-03-23T00:47:55;14.80;99.90
41838;DHT22;27511;52.042;5.178;2023-03-23T00:50:21;14.80;99.90
41838;DHT22;27511;52.042;5.178;2023-03-23T00:52:47;14.80;99.90
41838;DHT22;27511;52.042;5.178;2023-03-23T00:55:14;14.70;99.90
41838;DHT22;27511;52.042;5.178;2023-03-23T00:57:40;14.80;99.90
41838;DHT22;27511;52.042;5.178;2023-03-23T01:00:06;14.90;99.90
41838;DHT22;27511;52.042;5.178;2023-03-23T01:02:36;14.90;99.90
41838;DHT22;27511;52.042;5.178;2023-03-23T01:05:01;15.00;99.90
41838;DHT22;27511;52.042;5.178;2023-03-23T01:07:28;14.90;99.90
41838;DHT22;27511;52.042;5.178;2023-03-23T01:09:56;15.00;99.90
41838;DHT22;27511;52.042;5.178;2023-03-23T01:12:23;15.00;99.90
41838;DHT22;27511;52.042;5.178;2023-03-23T01:14:50;15.00;99.90
41838;DHT22;27511;52.042;5.178;2023-03-23T01:17:16;14.90;99.90
41838;DHT22;27511;52.042;5.178;2023-03-23T01:19:41;14.90;99.90
41838;DHT22;27511;52.042;5.178;2023-03-23T01:22:07;15.00;99.90
41838;DHT22;27511;52.042;5.178;2023-03-23T01:24:33;15.10;99.90
41838;DHT22;27511;52.042;5.178;2023-03-23T01:26:58;15.00;99.90
41838;DHT22;27511;52.042;5.178;2023-03-23T01:29:27;15.00;99.90
41838;DHT22;27511;52.042;5.178;2023-03-23T01:31:52;15.00;99.90
41838;DHT22;27511;52.042;5.178;2023-03-23T01:34:17;14.80;99.90
41838;DHT22;27511;52.042;5.178;2023-03-23T01:36:43;14.80;99.90
41838;DHT22;27511;52.042;5.178;2023-03-23T01:39:08;14.90;99.90
41838;DHT22;27511;52.042;5.178;2023-03-23T01:41:35;14.80;99.90
41838;DHT22;27511;52.042;5.178;2023-03-23T01:44:02;14.80;99.90
41838;DHT22;27511;52.042;5.178;2023-03-23T01:46:29;14.90;99.90
41838;DHT22;27511;52.042;5.178;2023-03-23T01:48:56;14.90;99.90
41838;DHT22;27511;52.042;5.178;2023-03-23T01:51:23;14.90;99.90
41838;DHT22;27511;52.042;5.178;2023-03-23T01:53:54;14.90;99.90
41838;DHT22;27511;52.042;5.178;2023-03-23T01:56:21;14.80;99.90
41838;DHT22;27511;52.042;5.178;2023-03-23T01:58:51;15.00;99.90
41838;DHT22;27511;52.042;5.178;2023-03-23T02:01:17;15.00;99.90
41838;DHT22;27511;52.042;5.178;2023-03-23T02:03:44;15.00;99.90
41838;DHT22;27511;52.042;5.178;2023-03-23T02:06:10;15.10;99.90
41838;DHT22;27511;52.042;5.178;2023-03-23T02:08:36;15.00;99.90
41838;DHT22;27511;52.042;5.178;2023-03-23T02:11:10;14.90;99.90
41838;DHT22;27511;52.042;5.178;2023-03-23T02:13:36;15.00;99.90
41838;DHT22;27511;52.042;5.178;2023-03-23T02:16:12;14.90;99.90
41838;DHT22;27511;52.042;5.178;2023-03-23T02:18:44;14.90;99.90
41838;DHT22;27511;52.042;5.178;2023-03-23T02:26:44;14.90;99.90
41838;DHT22;27511;52.042;5.178;2023-03-23T02:32:00;14.90;99.90
41838;DHT22;27511;52.042;5.178;2023-03-23T02:37:03;15.00;99.90
41838;DHT22;27511;52.042;5.178;2023-03-23T02:39:33;14.80;99.90
41838;DHT22;27511;52.042;5.178;2023-03-23T02:42:07;14.80;99.90
41838;DHT22;27511;52.042;5.178;2023-03-23T02:44:34;14.80;99.90
41838;DHT22;27511;52.042;5.178;2023-03-23T02:47:02;14.80;99.90
41838;DHT22;27511;52.042;5.178;2023-03-23T02:49:29;14.90;99.90
41838;DHT22;27511;52.042;5.178;2023-03-23T02:51:57;15.00;99.90
41838;DHT22;27511;52.042;5.178;2023-03-23T02:54:24;15.20;99.90
41838;DHT22;27511;52.042;5.178;2023-03-23T02:56:51;15.20;99.90
41838;DHT22;27511;52.042;5.178;2023-03-23T02:59:17;15.20;99.90
41838;DHT22;27511;52.042;5.178;2023-03-23T03:04:11;14.90;99.90
41838;DHT22;27511;52.042;5.178;2023-03-23T03:06:45;14.90;99.90
41838;DHT22;27511;52.042;5.178;2023-03-23T03:11:40;14.70;99.90
41838;DHT22;27511;52.042;5.178;2023-03-23T03:14:08;14.80;99.90
41838;DHT22;27511;52.042;5.178;2023-03-23T03:16:41;14.80;99.90
41838;DHT22;27511;52.042;5.178;2023-03-23T03:19:16;14.70;99.90
41838;DHT22;27511;52.042;5.178;2023-03-23T03:21:43;14.80;99.90
41838;DHT22;27511;52.042;5.178;2023-03-23T03:24:10;14.80;99.90
41838;DHT22;27511;52.042;5.178;2023-03-23T03:26:39;14.80;99.90
41838;DHT22;27511;52.042;5.178;2023-03-23T03:29:06;14.90;99.90
41838;DHT22;27511;52.042;5.178;2023-03-23T03:31:32;14.70;99.90
41838;DHT22;27511;52.042;5.178;2023-03-23T03:34:01;14.60;99.90
41838;DHT22;27511;52.042;5.178;2023-03-23T03:36:30;14.70;99.90
41838;DHT22;27511;52.042;5.178;2023-03-23T03:39:06;14.70;99.90
41838;DHT22;27511;52.042;5.178;2023-03-23T03:41:33;14.70;99.90
41838;DHT22;27511;52.042;5.178;2023-03-23T03:43:58;14.80;99.90
41838;DHT22;27511;52.042;5.178;2023-03-23T03:46:24;14.90;99.90
41838;DHT22;27511;52.042;5.178;2023-03-23T03:48:52;14.90;99.90
41838;DHT22;27511;52.042;5.178;2023-03-23T03:51:18;15.10;99.90
41838;DHT22;27511;52.042;5.178;2023-03-23T03:53:43;15.10;99.90
41838;DHT22;27511;52.042;5.178;2023-03-23T03:56:09;15.10;99.90
41838;DHT22;27511;52.042;5.178;2023-03-23T03:58:34;15.00;99.90
41838;DHT22;27511;52.042;5.178;2023-03-23T04:01:01;15.00;99.90
41838;DHT22;27511;52.042;5.178;2023-03-23T04:03:27;15.00;99.90
41838;DHT22;27511;52.042;5.178;2023-03-23T04:05:55;15.10;99.90
41838;DHT22;27511;52.042;5.178;2023-03-23T04:08:24;15.10;99.90
41838;DHT22;27511;52.042;5.178;2023-03-23T04:10:49;15.00;99.90
41838;DHT22;27511;52.042;5.178;2023-03-23T04:13:15;14.90;99.90
41838;DHT22;27511;52.042;5.178;2023-03-23T04:15:41;15.00;99.90
41838;DHT22;27511;52.042;5.178;2023-03-23T04:18:06;15.20;99.90
41838;DHT22;27511;52.042;5.178;2023-03-23T04:20:33;15.00;99.90
41838;DHT22;27511;52.042;5.178;2023-03-23T04:23:00;14.80;99.90
41838;DHT22;27511;52.042;5.178;2023-03-23T04:25:27;14.70;99.90
41838;DHT22;27511;52.042;5.178;2023-03-23T04:27:53;14.70;99.90
41838;DHT22;27511;52.042;5.178;2023-03-23T04:30:22;14.70;99.90
41838;DHT22;27511;52.042;5.178;2023-03-23T04:32:49;14.70;99.90
41838;DHT22;27511;52.042;5.178;2023-03-23T04:35:21;14.80;99.90
41838;DHT22;27511;52.042;5.178;2023-03-23T04:37:46;14.80;99.90
41838;DHT22;27511;52.042;5.178;2023-03-23T04:40:12;14.60;99.90
41838;DHT22;27511;52.042;5.178;2023-03-23T04:42:42;14.60;99.90
41838;DHT22;27511;52.042;5.178;2023-03-23T04:45:16;14.60;99.90
41838;DHT22;27511;52.042;5.178;2023-03-23T04:47:46;14.70;99.90
41838;DHT22;27511;52.042;5.178;2023-03-23T04:50:18;14.50;99.90
41838;DHT22;27511;52.042;5.178;2023-03-23T04:52:45;14.60;99.90
41838;DHT22;27511;52.042;5.178;2023-03-23T04:55:11;14.80;99.90
41838;DHT22;27511;52.042;5.178;2023-03-23T04:57:36;14.60;99.90
41838;DHT22;27511;52.042;5.178;2023-03-23T05:00:02;14.60;99.90
41838;DHT22;27511;52.042;5.178;2023-03-23T05:02:36;14.60;99.90
41838;DHT22;27511;52.042;5.178;2023-03-23T05:05:02;14.70;99.90
41838;DHT22;27511;52.042;5.178;2023-03-23T05:07:28;14.80;99.90
41838;DHT22;27511;52.042;5.178;2023-03-23T05:09:53;14.60;99.90
41838;DHT22;27511;52.042;5.178;2023-03-23T05:12:18;14.70;99.90
41838;DHT22;27511;52.042;5.178;2023-03-23T05:14:44;14.70;99.90
41838;DHT22;27511;52.042;5.178;2023-03-23T05:17:10;14.60;99.90
41838;DHT22;27511;52.042;5.178;2023-03-23T05:19:35;14.50;99.90
41838;DHT22;27511;52.042;5.178;2023-03-23T05:22:01;14.60;99.90
41838;DHT22;27511;52.042;5.178;2023-03-23T05:24:31;14.50;99.90
41838;DHT22;27511;52.042;5.178;2023-03-23T05:27:00;14.60;99.90
41838;DHT22;27511;52.042;5.178;2023-03-23T05:29:28;14.60;99.90
41838;DHT22;27511;52.042;5.178;2023-03-23T05:31:56;14.50;99.90
41838;DHT22;27511;52.042;5.178;2023-03-23T05:34:25;14.50;99.90
41838;DHT22;27511;52.042;5.178;2023-03-23T05:36:51;14.70;99.90
41838;DHT22;27511;52.042;5.178;2023-03-23T05:39:18;14.60;99.90
41838;DHT22;27511;52.042;5.178;2023-03-23T05:41:44;14.60;99.90
41838;DHT22;27511;52.042;5.178;2023-03-23T05:44:10;14.70;99.90
41838;DHT22;27511;52.042;5.178;2023-03-23T05:46:35;14.70;99.90
41838;DHT22;27511;52.042;5.178;2023-03-23T05:49:01;14.80;99.90
41838;DHT22;27511;52.042;5.178;2023-03-23T05:51:27;14.80;99.90
41838;DHT22;27511;52.042;5.178;2023-03-23T05:53:52;14.80;99.90
41838;DHT22;27511;52.042;5.178;2023-03-23T05:56:18;14.80;99.90
41838;DHT22;27511;52.042;5.178;2023-03-23T05:58:44;14.80;99.90
41838;DHT22;27511;52.042;5.178;2023-03-23T06:01:10;14.70;99.90
41838;DHT22;27511;52.042;5.178;2023-03-23T06:03:39;14.60;99.90
41838;DHT22;27511;52.042;5.178;2023-03-23T06:06:04;14.60;99.90
41838;DHT22;27511;52.042;5.178;2023-03-23T06:08:30;14.70;99.90
41838;DHT22;27511;52.042;5.178;2023-03-23T06:10:55;14.50;99.90
41838;DHT22;27511;52.042;5.178;2023-03-23T06:13:22;14.50;99.90
41838;DHT22;27511;52.042;5.178;2023-03-23T06:15:48;14.50;99.90
41838;DHT22;27511;52.042;5.178;2023-03-23T06:18:14;14.30;99.90
41838;DHT22;27511;52.042;5.178;2023-03-23T06:20:39;14.30;99.90
41838;DHT22;27511;52.042;5.178;2023-03-23T06:23:06;14.30;99.90
41838;DHT22;27511;52.042;5.178;2023-03-23T06:25:32;14.40;99.90
41838;DHT22;27511;52.042;5.178;2023-03-23T06:27:58;14.40;99.90
41838;DHT22;27511;52.042;5.178;2023-03-23T06:30:23;14.40;99.90
41838;DHT22;27511;52.042;5.178;2023-03-23T06:32:49;14.40;99.90
41838;DHT22;27511;52.042;5.178;2023-03-23T06:35:15;14.40;99.90
41838;DHT22;27511;52.042;5.178;2023-03-23T06:37:41;14.30;99.90
41838;DHT22;27511;52.042;5.178;2023-03-23T06:40:07;14.30;99.90
41838;DHT22;27511;52.042;5.178;2023-03-23T06:42:33;14.50;99.90
41838;DHT22;27511;52.042;5.178;2023-03-23T06:44:59;14.50;99.90
41838;DHT22;27511;52.042;5.178;2023-03-23T06:47:26;14.50;99.90
41838;DHT22;27511;52.042;5.178;2023-03-23T06:49:52;14.50;99.90
41838;DHT22;27511;52.042;5.178;2023-03-23T06:52:17;14.50;99.90
41838;DHT22;27511;52.042;5.178;2023-03-23T06:54:43;14.20;99.90
41838;DHT22;27511;52.042;5.178;2023-03-23T06:57:08;14.30;99.90
41838;DHT22;27511;52.042;5.178;2023-03-23T06:59:34;14.30;99.90
41838;DHT22;27511;52.042;5.178;2023-03-23T07:01:59;14.40;99.90
41838;DHT22;27511;52.042;5.178;2023-03-23T07:04:25;14.10;99.90
41838;DHT22;27511;52.042;5.178;2023-03-23T07:06:50;13.80;99.90
41838;DHT22;27511;52.042;5.178;2023-03-23T07:09:16;14.00;99.90
41838;DHT22;27511;52.042;5.178;2023-03-23T07:11:41;14.00;99.90
41838;DHT22;27511;52.042;5.178;2023-03-23T07:14:07;14.10;99.90
41838;DHT22;27511;52.042;5.178;2023-03-23T07:16:37;14.20;99.90
41838;DHT22;27511;52.042;5.178;2023-03-23T07:19:03;14.10;99.90
41838;DHT22;27511;52.042;5.178;2023-03-23T07:21:30;13.90;99.90
41838;DHT22;27511;52.042;5.178;2023-03-23T07:23:56;13.70;99.90
41838;DHT22;27511;52.042;5.178;2023-03-23T07:26:23;13.90;99.90
41838;DHT22;27511;52.042;5.178;2023-03-23T07:28:50;14.00;99.90
41838;DHT22;27511;52.042;5.178;2023-03-23T07:31:16;14.00;99.90
41838;DHT22;27511;52.042;5.178;2023-03-23T07:33:44;14.00;99.90
41838;DHT22;27511;52.042;5.178;2023-03-23T07:36:11;14.20;99.90
41838;DHT22;27511;52.042;5.178;2023-03-23T07:38:40;14.30;99.90
41838;DHT22;27511;52.042;5.178;2023-03-23T07:41:06;14.20;99.90
41838;DHT22;27511;52.042;5.178;2023-03-23T07:43:33;14.10;99.90
41838;DHT22;27511;52.042;5.178;2023-03-23T07:45:59;14.10;99.90
41838;DHT22;27511;52.042;5.178;2023-03-23T07:48:26;14.00;99.90
41838;DHT22;27511;52.042;5.178;2023-03-23T07:50:53;14.20;99.90
41838;DHT22;27511;52.042;5.178;2023-03-23T07:53:19;14.00;99.90
41838;DHT22;27511;52.042;5.178;2023-03-23T07:55:47;14.20;99.90
41838;DHT22;27511;52.042;5.178;2023-03-23T07:58:14;14.40;99.90
41838;DHT22;27511;52.042;5.178;2023-03-23T08:00:45;14.60;99.90
41838;DHT22;27511;52.042;5.178;2023-03-23T08:03:11;14.40;99.90
41838;DHT22;27511;52.042;5.178;2023-03-23T08:05:37;14.50;99.90
41838;DHT22;27511;52.042;5.178;2023-03-23T08:08:03;14.80;99.90
41838;DHT22;27511;52.042;5.178;2023-03-23T08:10:28;14.60;99.90
41838;DHT22;27511;52.042;5.178;2023-03-23T08:12:55;14.60;99.90
41838;DHT22;27511;52.042;5.178;2023-03-23T08:15:21;14.40;99.90
41838;DHT22;27511;52.042;5.178;2023-03-23T08:17:47;14.30;99.90
41838;DHT22;27511;52.042;5.178;2023-03-23T08:20:13;14.30;99.90
41838;DHT22;27511;52.042;5.178;2023-03-23T08:22:40;14.40;99.90
41838;DHT22;27511;52.042;5.178;2023-03-23T08:25:07;14.60;99.90
41838;DHT22;27511;52.042;5.178;2023-03-23T08:27:33;14.50;99.90
41838;DHT22;27511;52.042;5.178;2023-03-23T08:29:58;14.50;99.90
41838;DHT22;27511;52.042;5.178;2023-03-23T08:32:24;14.60;99.90
41838;DHT22;27511;52.042;5.178;2023-03-23T08:34:50;14.70;99.90
41838;DHT22;27511;52.042;5.178;2023-03-23T08:37:16;14.70;99.90
41838;DHT22;27511;52.042;5.178;2023-03-23T08:39:42;14.70;99.90
41838;DHT22;27511;52.042;5.178;2023-03-23T08:42:11;14.80;99.90
41838;DHT22;27511;52.042;5.178;2023-03-23T08:44:36;14.70;99.90
41838;DHT22;27511;52.042;5.178;2023-03-23T08:47:02;14.70;99.90
41838;DHT22;27511;52.042;5.178;2023-03-23T08:49:29;14.70;99.90
41838;DHT22;27511;52.042;5.178;2023-03-23T08:51:58;14.70;99.90
41838;DHT22;27511;52.042;5.178;2023-03-23T08:54:23;14.70;99.90
41838;DHT22;27511;52.042;5.178;2023-03-23T08:56:52;14.70;99.90
41838;DHT22;27511;52.042;5.178;2023-03-23T08:59:18;14.80;99.90
41838;DHT22;27511;52.042;5.178;2023-03-23T09:01:43;14.90;99.90
41838;DHT22;27511;52.042;5.178;2023-03-23T09:04:09;15.00;99.90
41838;DHT22;27511;52.042;5.178;2023-03-23T09:06:38;15.00;99.90
41838;DHT22;27511;52.042;5.178;2023-03-23T09:09:04;15.00;99.90
41838;DHT22;27511;52.042;5.178;2023-03-23T09:11:34;15.00;99.90
41838;DHT22;27511;52.042;5.178;2023-03-23T09:14:00;14.90;99.90
41838;DHT22;27511;52.042;5.178;2023-03-23T09:16:26;15.10;99.90
41838;DHT22;27511;52.042;5.178;2023-03-23T09:18:52;14.90;99.90
41838;DHT22;27511;52.042;5.178;2023-03-23T09:21:17;15.00;99.90
41838;DHT22;27511;52.042;5.178;2023-03-23T09:23:43;15.20;99.90
41838;DHT22;27511;52.042;5.178;2023-03-23T09:26:09;15.00;99.90
41838;DHT22;27511;52.042;5.178;2023-03-23T09:28:35;15.00;99.90
41838;DHT22;27511;52.042;5.178;2023-03-23T09:31:00;14.90;99.90
41838;DHT22;27511;52.042;5.178;2023-03-23T09:33:26;15.00;99.90
41838;DHT22;27511;52.042;5.178;2023-03-23T09:36:01;15.20;99.90
41838;DHT22;27511;52.042;5.178;2023-03-23T09:38:38;15.20;99.90
41838;DHT22;27511;52.042;5.178;2023-03-23T09:41:20;15.20;99.90
41838;DHT22;27511;52.042;5.178;2023-03-23T09:43:51;15.10;99.90
41838;DHT22;27511;52.042;5.178;2023-03-23T09:49:14;15.10;99.90
41838;DHT22;27511;52.042;5.178;2023-03-23T09:51:50;15.00;99.90
41838;DHT22;27511;52.042;5.178;2023-03-23T09:56:45;15.40;99.90
41838;DHT22;27511;52.042;5.178;2023-03-23T10:01:44;15.30;99.90
41838;DHT22;27511;52.042;5.178;2023-03-23T10:04:28;15.10;99.90
41838;DHT22;27511;52.042;5.178;2023-03-23T10:06:59;15.10;99.90
41838;DHT22;27511;52.042;5.178;2023-03-23T10:09:26;15.20;99.90
41838;DHT22;27511;52.042;5.178;2023-03-23T10:16:55;15.30;99.90
41838;DHT22;27511;52.042;5.178;2023-03-23T10:19:27;15.30;99.90
41838;DHT22;27511;52.042;5.178;2023-03-23T10:22:04;15.30;99.90
41838;DHT22;27511;52.042;5.178;2023-03-23T10:24:34;15.50;99.90
41838;DHT22;27511;52.042;5.178;2023-03-23T10:27:19;15.50;99.90
41838;DHT22;27511;52.042;5.178;2023-03-23T10:30:34;15.60;99.90
41838;DHT22;27511;52.042;5.178;2023-03-23T10:32:38;15.30;99.90
41838;DHT22;27511;52.042;5.178;2023-03-23T10:35:05;15.30;99.90
41838;DHT22;27511;52.042;5.178;2023-03-23T10:37:32;15.40;99.90
41838;DHT22;27511;52.042;5.178;2023-03-23T10:40:02;15.40;99.90
41838;DHT22;27511;52.042;5.178;2023-03-23T10:42:30;15.40;99.90
41838;DHT22;27511;52.042;5.178;2023-03-23T10:44:58;15.60;99.90
41838;DHT22;27511;52.042;5.178;2023-03-23T10:47:24;15.60;99.90
41838;DHT22;27511;52.042;5.178;2023-03-23T10:49:51;15.70;99.90
41838;DHT22;27511;52.042;5.178;2023-03-23T10:54:57;16.10;99.90
41838;DHT22;27511;52.042;5.178;2023-03-23T10:57:27;16.00;99.90
41838;DHT22;27511;52.042;5.178;2023-03-23T10:59:58;15.90;99.90
41838;DHT22;27511;52.042;5.178;2023-03-23T11:02:23;16.00;99.90
41838;DHT22;27511;52.042;5.178;2023-03-23T11:04:56;16.10;99.90
41838;DHT22;27511;52.042;5.178;2023-03-23T11:07:25;16.20;99.90
41838;DHT22;27511;52.042;5.178;2023-03-23T11:09:52;16.30;99.90
41838;DHT22;27511;52.042;5.178;2023-03-23T11:12:19;16.30;99.90
41838;DHT22;27511;52.042;5.178;2023-03-23T11:14:45;16.30;99.90
41838;DHT22;27511;52.042;5.178;2023-03-23T11:17:19;16.30;99.90
41838;DHT22;27511;52.042;5.178;2023-03-23T11:19:45;16.10;99.90
41838;DHT22;27511;52.042;5.178;2023-03-23T11:22:22;16.50;99.90
41838;DHT22;27511;52.042;5.178;2023-03-23T11:24:51;16.40;99.90
41838;DHT22;27511;52.042;5.178;2023-03-23T11:27:17;16.30;99.90
41838;DHT22;27511;52.042;5.178;2023-03-23T11:29:54;16.10;99.90
41838;DHT22;27511;52.042;5.178;2023-03-23T11:32:22;16.30;99.90
41838;DHT22;27511;52.042;5.178;2023-03-23T11:34:52;16.60;99.90
41838;DHT22;27511;52.042;5.178;2023-03-23T11:39:57;16.70;99.90
41838;DHT22;27511;52.042;5.178;2023-03-23T11:42:34;16.70;99.90
41838;DHT22;27511;52.042;5.178;2023-03-23T11:45:21;16.80;99.90
41838;DHT22;27511;52.042;5.178;2023-03-23T11:50:43;16.00;99.90
41838;DHT22;27511;52.042;5.178;2023-03-23T11:53:19;16.10;99.90
41838;DHT22;27511;52.042;5.178;2023-03-23T11:58:13;16.00;99.90
41838;DHT22;27511;52.042;5.178;2023-03-23T12:00:46;16.10;99.90
41838;DHT22;27511;52.042;5.178;2023-03-23T12:03:14;16.20;99.90
41838;DHT22;27511;52.042;5.178;2023-03-23T12:05:43;16.20;99.90
41838;DHT22;27511;52.042;5.178;2023-03-23T12:08:15;16.30;99.90
41838;DHT22;27511;52.042;5.178;2023-03-23T12:11:06;16.50;99.90
41838;DHT22;27511;52.042;5.178;2023-03-23T12:14:22;16.40;99.90
41838;DHT22;27511;52.042;5.178;2023-03-23T12:16:35;16.40;99.90
41838;DHT22;27511;52.042;5.178;2023-03-23T12:21:58;16.20;99.90
41838;DHT22;27511;52.042;5.178;2023-03-23T12:37:34;16.90;99.90
41838;DHT22;27511;52.042;5.178;2023-03-23T12:45:25;18.00;99.90
41838;DHT22;27511;52.042;5.178;2023-03-23T12:47:57;18.50;99.90
41838;DHT22;27511;52.042;5.178;2023-03-23T12:50:29;18.90;99.90
41838;DHT22;27511;52.042;5.178;2023-03-23T12:52:58;18.70;99.90
41838;DHT22;27511;52.042;5.178;2023-03-23T12:55:34;18.40;99.90
41838;DHT22;27511;52.042;5.178;2023-03-23T13:00:28;18.20;99.90
41838;DHT22;27511;52.042;5.178;2023-03-23T13:05:38;18.20;99.90
41838;DHT22;27511;52.042;5.178;2023-03-23T13:08:14;18.00;99.90
41838;DHT22;27511;52.042;5.178;2023-03-23T13:10:47;18.00;99.90
41838;DHT22;27511;52.042;5.178;2023-03-23T13:13:25;17.90;99.90
41838;DHT22;27511;52.042;5.178;2023-03-23T13:16:05;18.10;99.90
41838;DHT22;27511;52.042;5.178;2023-03-23T13:24:03;19.90;99.90
41838;DHT22;27511;52.042;5.178;2023-03-23T13:26:29;20.00;99.90
41838;DHT22;27511;52.042;5.178;2023-03-23T13:28:59;19.70;99.90
41838;DHT22;27511;52.042;5.178;2023-03-23T13:31:34;19.80;99.90
41838;DHT22;27511;52.042;5.178;2023-03-23T13:36:52;19.30;99.90
41838;DHT22;27511;52.042;5.178;2023-03-23T13:44:38;18.40;99.90
41838;DHT22;27511;52.042;5.178;2023-03-23T13:47:47;18.20;99.90
41838;DHT22;27511;52.042;5.178;2023-03-23T13:49:57;18.00;99.90
41838;DHT22;27511;52.042;5.178;2023-03-23T13:54:49;17.70;99.90
41838;DHT22;27511;52.042;5.178;2023-03-23T13:57:19;17.90;99.90
41838;DHT22;27511;52.042;5.178;2023-03-23T13:59:47;17.60;99.90
41838;DHT22;27511;52.042;5.178;2023-03-23T14:04:57;17.10;99.90
41838;DHT22;27511;52.042;5.178;2023-03-23T14:07:23;16.50;99.90
41838;DHT22;27511;52.042;5.178;2023-03-23T14:09:50;17.30;99.90
41838;DHT22;27511;52.042;5.178;2023-03-23T14:19:32;20.90;99.90
41838;DHT22;27511;52.042;5.178;2023-03-23T14:21:59;21.80;99.90
41838;DHT22;27511;52.042;5.178;2023-03-23T14:24:32;22.00;99.90
41838;DHT22;27511;52.042;5.178;2023-03-23T14:27:02;21.30;99.90
41838;DHT22;27511;52.042;5.178;2023-03-23T14:29:28;20.50;99.90
41838;DHT22;27511;52.042;5.178;2023-03-23T14:31:54;20.40;99.90
41838;DHT22;27511;52.042;5.178;2023-03-23T14:34:21;20.70;99.90
41838;DHT22;27511;52.042;5.178;2023-03-23T14:36:47;21.00;99.90
41838;DHT22;27511;52.042;5.178;2023-03-23T14:41:38;21.50;99.90
41838;DHT22;27511;52.042;5.178;2023-03-23T14:44:05;22.20;99.90
41838;DHT22;27511;52.042;5.178;2023-03-23T14:46:31;22.60;99.90
41838;DHT22;27511;52.042;5.178;2023-03-23T14:48:59;22.80;99.90
41838;DHT22;27511;52.042;5.178;2023-03-23T14:51:25;22.10;99.90
41838;DHT22;27511;52.042;5.178;2023-03-23T14:53:52;21.60;99.90
41838;DHT22;27511;52.042;5.178;2023-03-23T14:56:18;21.40;99.90
41838;DHT22;27511;52.042;5.178;2023-03-23T14:58:45;21.20;99.90
41838;DHT22;27511;52.042;5.178;2023-03-23T15:01:12;21.20;99.90
41838;DHT22;27511;52.042;5.178;2023-03-23T15:03:40;21.80;99.90
41838;DHT22;27511;52.042;5.178;2023-03-23T15:06:10;22.00;99.90
41838;DHT22;27511;52.042;5.178;2023-03-23T15:08:37;21.50;99.90
41838;DHT22;27511;52.042;5.178;2023-03-23T15:11:21;21.20;99.90
41838;DHT22;27511;52.042;5.178;2023-03-23T15:13:50;21.60;99.90
41838;DHT22;27511;52.042;5.178;2023-03-23T15:16:27;21.80;99.90
41838;DHT22;27511;52.042;5.178;2023-03-23T15:21:21;20.90;99.90
41838;DHT22;27511;52.042;5.178;2023-03-23T15:23:47;20.30;99.90
41838;DHT22;27511;52.042;5.178;2023-03-23T15:26:46;20.10;99.90
41838;DHT22;27511;52.042;5.178;2023-03-23T15:31:33;19.90;99.90
41838;DHT22;27511;52.042;5.178;2023-03-23T15:34:02;19.90;99.90
41838;DHT22;27511;52.042;5.178;2023-03-23T15:36:31;19.90;99.90
41838;DHT22;27511;52.042;5.178;2023-03-23T15:38:57;20.00;99.90
41838;DHT22;27511;52.042;5.178;2023-03-23T15:41:23;20.10;99.90
41838;DHT22;27511;52.042;5.178;2023-03-23T15:44:09;20.80;99.90
41838;DHT22;27511;52.042;5.178;2023-03-23T15:46:34;20.80;99.90
41838;DHT22;27511;52.042;5.178;2023-03-23T15:51:27;20.10;99.90
41838;DHT22;27511;52.042;5.178;2023-03-23T15:53:54;20.00;99.90
41838;DHT22;27511;52.042;5.178;2023-03-23T15:56:20;20.00;99.90
41838;DHT22;27511;52.042;5.178;2023-03-23T15:58:45;19.90;99.90
41838;DHT22;27511;52.042;5.178;2023-03-23T16:01:12;19.90;99.90
41838;DHT22;27511;52.042;5.178;2023-03-23T16:03:39;19.60;99.90
41838;DHT22;27511;52.042;5.178;2023-03-23T16:06:09;19.40;99.90
41838;DHT22;27511;52.042;5.178;2023-03-23T16:08:35;19.40;99.90
41838;DHT22;27511;52.042;5.178;2023-03-23T16:11:06;19.30;99.90
41838;DHT22;27511;52.042;5.178;2023-03-23T16:13:31;19.10;99.90
41838;DHT22;27511;52.042;5.178;2023-03-23T16:15:57;19.30;99.90
41838;DHT22;27511;52.042;5.178;2023-03-23T16:18:23;19.30;99.90
41838;DHT22;27511;52.042;5.178;2023-03-23T16:20:49;19.20;99.90
41838;DHT22;27511;52.042;5.178;2023-03-23T16:23:15;19.10;99.90
41838;DHT22;27511;52.042;5.178;2023-03-23T16:25:40;19.00;99.90
41838;DHT22;27511;52.042;5.178;2023-03-23T16:28:08;19.10;99.90
41838;DHT22;27511;52.042;5.178;2023-03-23T16:30:35;19.20;99.90
41838;DHT22;27511;52.042;5.178;2023-03-23T16:33:01;18.90;99.90
41838;DHT22;27511;52.042;5.178;2023-03-23T16:35:26;18.80;99.90
41838;DHT22;27511;52.042;5.178;2023-03-23T16:37:53;18.70;99.90
41838;DHT22;27511;52.042;5.178;2023-03-23T16:40:20;18.90;99.90
41838;DHT22;27511;52.042;5.178;2023-03-23T16:42:46;18.90;99.90
41838;DHT22;27511;52.042;5.178;2023-03-23T16:45:12;19.00;99.90
41838;DHT22;27511;52.042;5.178;2023-03-23T16:47:38;18.90;99.90
41838;DHT22;27511;52.042;5.178;2023-03-23T16:50:04;18.80;99.90
41838;DHT22;27511;52.042;5.178;2023-03-23T16:52:31;18.80;99.90
41838;DHT22;27511;52.042;5.178;2023-03-23T16:54:57;18.90;99.90
41838;DHT22;27511;52.042;5.178;2023-03-23T16:57:22;18.90;99.90
41838;DHT22;27511;52.042;5.178;2023-03-23T16:59:48;18.70;99.90
41838;DHT22;27511;52.042;5.178;2023-03-23T17:02:13;18.60;99.90
41838;DHT22;27511;52.042;5.178;2023-03-23T17:04:43;18.60;99.90
41838;DHT22;27511;52.042;5.178;2023-03-23T17:07:09;18.60;99.90
41838;DHT22;27511;52.042;5.178;2023-03-23T17:09:34;18.50;99.90
41838;DHT22;27511;52.042;5.178;2023-03-23T17:12:00;18.50;99.90
41838;DHT22;27511;52.042;5.178;2023-03-23T17:14:25;18.40;99.90
41838;DHT22;27511;52.042;5.178;2023-03-23T17:16:51;18.50;99.90